Weather observations for the past three days for
Lago Vista TX, Rusty Allen Airport
Metric (Imperial)
Date Time (cdt) Wind (kph) Vis. (km) Weather Sky Cond. Temperature (ºC) Relative Humidity Wind Chill (°C) Heat Index (°C) Pressure Precipitation (cm)
Air Dwpt 6 hour altimeter (cm) sea level (mb) 1 hr 3 hr 6 hr
Max. Min.
05 19:55 SE 9 16.09 Fair CLR 26.1 21.4 75% 28 75.57 0.0
05 19:35 S 7 16.09 Fair CLR 26.6 21.1 72% 28 75.59 0.0
05 19:15 S 11 16.09 Partly Cloudy SCT037 26.8 21 71% 29 75.59 0.0
05 18:55 S 9 16.09 Partly Cloudy SCT037 27 21 29.3 24.7 70% 29 75.59 0.0
05 18:35 S 17 16.09 Partly Cloudy SCT037 27.2 20.8 68% 29 75.57 0.0
05 18:15 S 11 G 26 16.09 Partly Cloudy SCT035 27.6 20.8 67% 30 75.57 0.0
05 17:55 S 17 16.09 Mostly Cloudy BKN035 27.8 20.7 65% 30 75.54 0.0
05 17:35 S 15 16.09 Partly Cloudy SCT038 28 20.6 64% 30 75.57 0.0
05 17:15 S 15 G 26 16.09 Partly Cloudy SCT032 28.2 20.6 63% 30 75.54 0.0
05 16:55 S 13 G 31 16.09 Partly Cloudy SCT034 28.7 20.8 62% 31 75.57 0.0
05 16:35 SW 17 G 26 16.09 Fair CLR 29.2 20.3 59% 31 75.57 0.0
05 16:15 S 11 16.09 Fair CLR 29 20.5 60% 31 75.57 0.0
05 15:55 S 17 G 28 16.09 Fair CLR 29.1 20.7 61% 31 75.59 0.0
05 15:35 S 17 16.09 Partly Cloudy SCT030 29 20.7 61% 31 75.59 0.0
05 15:15 S 15 16.09 Partly Cloudy SCT029 28.8 20.6 61% 31 75.64 0.0
05 14:35 S 19 16.09 Mostly Cloudy BKN025 28.2 20.6 63% 30 75.67 0.0
05 14:15 S 11 16.09 Mostly Cloudy BKN023 27.1 20.3 66% 29 75.69 0.0
05 13:55 S 9 16.09 Mostly Cloudy BKN021 26.7 20.3 68% 28 75.72 0.0
05 13:35 SW 13 16.09 Overcast OVC019 25.7 20.1 71% 27 75.74 0.0
05 13:15 SW 15 16.09 Overcast OVC019 25 20 74% 26 75.74 0.0
05 12:55 SW 17 16.09 Overcast OVC017 24.7 20.1 24.8 20.6 76% 26 75.77 0.0
05 12:35 SW 17 G 28 16.09 Overcast OVC017 24.4 20.3 78% 25 75.77 0.0
05 12:15 S 17 G 28 16.09 Overcast OVC013 23.4 20.5 84% 75.79 0.0
05 11:55 S 11 16.09 Overcast OVC011 23.1 20.5 85% 75.79 0.0
05 11:35 SW 17 16.09 Overcast OVC011 22.8 20.4 86% 75.79 0.0
05 11:15 SW 13 G 26 16.09 Overcast OVC009 22.2 20.5 90% 75.79 0.0
05 10:55 SW 15 16.09 Overcast OVC009 21.5 20.5 94% 75.79 0.0
05 10:35 SW 19 16.09 Overcast OVC009 21.3 20.5 95% 75.79 0.0
05 10:15 SW 11 16.09 Overcast OVC009 21.1 20.5 96% 75.79 0.0
05 09:55 SW 11 G 26 16.09 Overcast OVC009 21.1 20.3 95% 75.77 0.0
05 09:35 S 17 G 28 16.09 Overcast OVC009 21 20.2 95% 75.77 0.0
05 09:15 SW 20 G 26 16.09 Overcast OVC009 21 20.2 95% 75.74 0.0
05 08:55 S 17 16.09 Overcast OVC009 20.8 20.3 97% 75.74 0.0
05 08:35 SW 22 G 30 16.09 Overcast OVC009 20.8 20.3 97% 75.74 0.0
05 08:15 SW 15 G 30 16.09 Overcast OVC009 20.6 20.1 97% 75.74 0.0
05 07:55 SW 19 G 26 16.09 Overcast OVC009 20.6 20.1 97% 75.72 0.0
05 07:35 SW 24 16.09 Overcast OVC009 20.6 20 96% 75.69 0.0
05 07:15 S 15 G 28 16.09 Overcast OVC009 20.6 20 96% 75.67 0.0
05 06:55 SW 19 G 26 16.09 Overcast OVC009 20.6 20.1 21 20.5 97% 75.64 0.0
05 06:35 SW 17 G 26 16.09 Overcast OVC009 20.6 20.2 98% 75.64 0.0
05 06:15 S 15 G 28 16.09 Overcast OVC011 20.6 20.2 98% 75.64 0.0
05 05:55 S 15 16.09 Overcast OVC011 20.7 20.1 96% 75.67 0.0
05 05:35 S 13 16.09 Overcast OVC011 20.7 20 96% 75.67 0.0
05 05:15 S 15 16.09 Overcast OVC011 20.8 20 95% 75.67 0.0
05 04:55 S 15 16.09 Overcast OVC011 20.7 20 96% 75.67 0.0
05 04:35 S 17 16.09 Overcast OVC011 20.7 20 96% 75.67 0.0
05 04:15 S 15 G 30 16.09 Overcast OVC011 20.6 20 96% 75.67 0.0
05 03:55 SW 19 G 28 16.09 Overcast OVC011 20.6 19.8 95% 75.69 0.0
05 03:35 S 15 G 26 16.09 Overcast OVC011 20.5 19.7 95% 75.69 0.0
05 03:15 S 15 16.09 Overcast OVC011 20.6 19.7 95% 75.72 0.0
05 02:55 S 20 G 30 16.09 Overcast OVC011 20.7 19.7 94% 75.72 0.0
05 02:35 S 17 G 31 16.09 Overcast OVC011 20.7 19.7 94% 75.74 0.0
05 02:15 S 19 G 33 16.09 Overcast OVC011 20.8 19.6 93% 75.74 0.0
05 01:55 S 22 G 39 16.09 Overcast OVC011 20.8 19.5 92% 75.77 0.0
05 01:35 S 22 G 33 16.09 Overcast OVC011 20.8 19.5 92% 75.79 0.0
05 01:15 S 19 G 30 16.09 Overcast OVC013 21 19.5 91% 75.79 0.0
05 00:55 S 19 G 26 16.09 Overcast OVC013 21 19.5 25.6 21 91% 75.79 0.0
05 00:35 S 19 G 30 16.09 Overcast OVC013 21 19.5 91% 75.79 0.0
05 00:15 S 20 G 31 16.09 Overcast OVC013 21.1 19.5 91% 75.79 0.0
04 23:55 S 17 G 31 16.09 Mostly Cloudy BKN015 21.1 19.5 91% 75.79 0.0
04 23:35 S 17 G 37 16.09 Partly Cloudy SCT015 21.2 19.3 89% 75.82 0.0
04 23:15 S 17 16.09 Fair CLR 21.5 19.2 87% 75.82 0.0
04 22:55 S 17 G 26 16.09 Fair CLR 21.9 18.8 83% 75.82 0.0
04 22:35 S 20 G 33 16.09 Fair CLR 22 18.5 81% 75.82 0.0
04 22:15 S 19 G 30 16.09 Fair CLR 22.3 18.3 78% 75.79 0.0
04 21:55 S 17 16.09 Fair CLR 22.5 18.1 76% 75.79 0.0
04 21:35 S 19 16.09 Fair CLR 22.8 18 74% 75.79 0.0
04 21:15 S 15 16.09 Fair CLR 23 17.5 71% 75.79 0.0
04 20:55 S 11 16.09 Fair CLR 23.3 17.3 69% 75.79 0.0
04 20:35 S 13 16.09 Fair CLR 23.8 16.9 65% 75.79 0.0
04 20:15 S 15 16.09 Fair CLR 24.2 16.6 63% 25 75.79 0.0
04 19:55 S 20 G 37 16.09 Fair CLR 24.5 16.5 61% 26 75.77 0.0
04 19:35 S 20 G 31 16.09 Fair CLR 25 16.5 59% 26 75.77 0.0
04 19:15 S 15 G 26 16.09 Fair CLR 25.3 16.7 59% 26 75.77 0.0
04 18:55 S 20 G 35 16.09 Fair CLR 25.6 16.4 27.8 24.2 57% 26 75.77 0.0
04 18:35 S 22 G 39 16.09 Partly Cloudy SCT040 26 16.5 56% 27 75.79 0.0
04 18:15 S 24 G 31 16.09 Partly Cloudy SCT042 26.1 16.5 56% 27 75.79 0.0
04 17:55 S 22 G 33 16.09 Partly Cloudy SCT042 27 16.7 53% 28 75.79 0.0
04 17:35 S 22 G 37 16.09 Partly Cloudy SCT042 26.7 16.5 54% 27 75.82 0.0
04 17:15 S 24 G 33 16.09 Partly Cloudy SCT044 27.1 16.5 52% 28 75.82 0.0
04 16:55 S 24 G 35 16.09 Mostly Cloudy BKN044 27.7 16.7 51% 28 75.84 0.0
04 16:35 S 20 G 31 16.09 Partly Cloudy SCT044 27.4 16.6 52% 28 75.84 0.0
04 16:15 S 22 G 33 16.09 Partly Cloudy SCT042 27.2 16.4 52% 28 75.87 0.0
04 15:55 S 19 G 31 16.09 Partly Cloudy SCT042 27.2 16.4 52% 28 75.9 0.0
04 15:35 S 17 G 26 16.09 Partly Cloudy SCT042 27.1 16.6 53% 28 75.92 0.0
04 15:15 S 17 G 31 16.09 Partly Cloudy SCT040 26.6 16 52% 27 75.95 0.0
04 14:55 S 19 G 30 16.09 Partly Cloudy SCT038 26.4 16.1 53% 27 76 0.0
04 14:35 S 26 G 39 16.09 Partly Cloudy SCT036 25.9 16.2 55% 27 76 0.0
04 14:15 S 24 G 35 16.09 Partly Cloudy SCT036 26 16 54% 27 76.02 0.0
04 13:55 SW 22 G 33 16.09 Mostly Cloudy BKN034 25.5 15.6 54% 26 76.05 0.0
04 13:35 S 20 G 30 16.09 Mostly Cloudy BKN034 24.7 15.8 58% 26 76.07 0.0
04 13:15 S 17 G 31 16.09 Mostly Cloudy BKN032 24.5 15.8 58% 26 76.1 0.0
04 12:55 S 17 G 35 16.09 Partly Cloudy SCT028 24.3 15.6 24.5 14.5 58% 25 76.1 0.0
04 12:35 S 20 G 33 16.09 Overcast OVC028 23.1 15.9 64% 76.12 0.0
04 12:15 S 22 G 37 16.09 Overcast OVC028 22.5 15.3 64% 76.17 0.0
04 11:55 S 17 G 35 16.09 Overcast OVC026 21.9 15.3 66% 76.17 0.0
04 11:35 SW 24 G 33 16.09 Overcast OVC024 21.4 15.2 68% 76.17 0.0
04 11:15 SW 22 G 35 16.09 Overcast OVC024 21 15 69% 76.17 0.0
04 10:55 SW 20 G 39 16.09 Mostly Cloudy BKN022 BKN028 21 15 69% 76.23 0.0
04 10:35 S 24 G 41 16.09 Mostly Cloudy BKN022 20.1 14.9 72% 76.2 0.0
04 10:15 SW 26 G 41 16.09 Overcast OVC020 20.4 14.6 69% 76.23 0.0
04 09:55 SW 31 G 39 16.09 Overcast OVC020 19.9 14.4 71% 76.25 0.0
04 09:35 S 19 G 35 16.09 Mostly Cloudy BKN020 19.9 14.6 72% 76.23 0.0
04 09:15 S 22 G 41 16.09 Partly Cloudy SCT020 19.2 14.2 73% 76.2 0.0
04 08:55 S 17 G 39 16.09 Fair CLR 18.6 14 75% 76.23 0.0
04 08:35 S 22 G 31 16.09 Fair CLR 17.6 13.9 79% 76.2 0.0
04 08:15 S 15 G 28 16.09 Fair CLR 17 13.7 81% 76.23 0.0
04 07:55 S 13 16.09 Fair CLR 16.4 13.5 83% 76.23 0.0
04 07:35 S 15 16.09 Fair CLR 15.6 13.5 87% 76.2 0.0
04 07:15 S 11 16.09 Fair CLR 14.9 13.3 90% 76.2 0.0
04 06:55 S 13 16.09 Fair CLR 14.5 13.3 17.7 14.5 93% 76.15 0.0
04 06:35 S 11 16.09 Fair CLR 14.6 13.2 91% 76.15 0.0
04 06:15 S 11 16.09 Fair CLR 14.8 13 89% 76.17 0.0
04 05:55 S 15 16.09 Fair CLR 15 13 88% 76.2 0.0
04 05:35 S 13 16.09 Fair CLR 15.1 12.8 86% 76.2 0.0
04 05:15 S 11 16.09 Fair CLR 15.1 12.7 86% 76.23 0.0
04 04:55 S 13 16.09 Fair CLR 15.5 12.6 83% 76.2 0.0
04 03:55 S 13 16.09 Fair CLR 15.8 12.3 80% 76.23 0.0
04 03:35 S 15 16.09 Fair CLR 16 12.3 79% 76.23 0.0
04 03:15 S 9 16.09 Fair CLR 16.2 12.1 77% 76.23 0.0
04 02:55 S 11 16.09 Fair CLR 16.5 12 75% 76.25 0.0
04 02:35 S 15 16.09 Fair CLR 16.6 11.8 73% 76.28 0.0
04 02:15 S 13 16.09 Fair CLR 16.8 11.7 72% 76.28 0.0
04 01:55 S 15 16.09 Fair CLR 17 11.5 70% 76.33 0.0
04 01:35 S 15 G 30 16.09 Fair CLR 17.3 11.5 69% 76.38 0.0
04 01:15 S 13 G 26 16.09 Fair CLR 17.5 11.2 67% 76.35 0.0
04 00:55 S 19 G 31 16.09 Fair CLR 17.7 11 22.8 17.6 65% 76.38 0.0
04 00:35 S 17 G 30 16.09 Fair CLR 17.7 10.6 63% 76.38 0.0
04 00:15 S 15 G 28 16.09 Fair CLR 17.8 10.5 63% 76.4 0.0
03 23:55 S 13 G 28 16.09 Fair CLR 17.9 10.1 61% 76.4 0.0
03 23:35 S 13 16.09 Fair CLR 18.1 9.4 57% 76.4 0.0
03 23:15 SE 11 16.09 Fair CLR 18.5 8.9 54% 76.43 0.0
03 22:55 S 9 16.09 Fair CLR 19.3 8.4 49% 76.43 0.0
03 22:35 S 11 16.09 Fair CLR 19.5 8 48% 76.4 0.0
03 22:15 S 9 16.09 Fair CLR 19.6 8.2 48% 76.4 0.0
03 21:55 S 9 16.09 Fair CLR 20 8.2 47% 76.43 0.0
03 21:35 S 9 16.09 Fair CLR 20.1 8.4 47% 76.43 0.0
03 21:15 S 7 16.09 Fair CLR 20.1 8.5 47% 76.4 0.0
03 20:55 S 9 16.09 Fair CLR 20.4 8.1 45% 76.4 0.0
03 20:35 S 7 16.09 Fair CLR 20.5 7.7 44% 76.38 0.0
03 20:15 S 7 16.09 Fair CLR 21 7.6 42% 76.38 0.0
03 19:55 S 7 16.09 Fair CLR 21.5 7.5 41% 76.38 0.0
03 19:35 S 7 16.09 Fair CLR 21.9 7.5 40% 76.38 0.0
03 19:20 SE 7 16.09 Fair CLR 22.4 7.1 37% 76.38 0.0
03 18:35 S 13 16.09 Fair CLR 23.6 7 34% 76.43 0.0
03 18:15 S 9 16.09 Fair CLR 23.7 6.6 33% 76.43 0.0
03 17:55 S 13 16.09 Fair CLR 23.6 5.8 32% 76.4 0.0
03 17:35 S 13 16.09 Fair CLR 24.9 6 30% 25 76.43 0.0
03 17:15 S 9 16.09 Fair CLR 25.2 6.1 29% 25 76.45 0.0
03 16:55 S 17 G 31 16.09 Fair CLR 24.8 4.8 28% 25 76.48 0.0
03 16:35 S 11 16.09 Fair CLR 25 5.7 29% 25 76.48 0.0
03 16:15 S 13 16.09 Fair CLR 25.3 5.3 28% 25 76.5 0.0
03 15:55 SE 11 G 28 16.09 Fair CLR 25.2 5.9 29% 25 76.56 0.0
03 15:35 S 13 16.09 Fair CLR 25.2 5.6 28% 25 76.56 0.0
03 15:15 SE 15 G 28 16.09 Fair CLR 25.4 5.8 28% 25 76.61 0.0
03 14:55 S 9 G 30 16.09 Fair CLR 25 5.3 28% 25 76.61 0.0
03 14:35 S 7 G 28 16.09 Fair CLR 25.7 6.1 29% 26 76.63 0.0
03 14:15 SE 13 16.09 Fair CLR 25.6 5.2 27% 26 76.66 0.0
03 13:35 S 13 16.09 Fair CLR 24.6 4.2 27% 25 76.71 0.0
03 13:15 SE 9 16.09 Fair CLR 24.3 6.3 32% 25 76.73 0.0
03 12:55 S 7 16.09 Fair CLR 24.1 6.4 24.5 12.1 32% 25 76.76 0.0
03 12:35 S 13 16.09 Fair CLR 24.4 7.2 33% 25 76.78 0.0
03 12:15 S 6 16.09 Fair CLR 24 6.8 33% 25 76.78 0.0
03 11:55 S 11 16.09 Fair CLR 23.2 7.2 36% 76.81 0.0
03 11:35 S 11 16.09 Fair CLR 23.1 8.1 38% 76.84 0.0
03 11:15 SW 7 16.09 Fair CLR 21.7 9.8 47% 76.84 0.0
03 10:55 SW 11 16.09 Fair CLR 20.7 9.9 50% 76.86 0.0
03 10:35 W 7 16.09 Fair CLR 20.5 10.2 52% 76.86 0.0
03 10:15 SW 6 16.09 Fair CLR 19.7 9.7 53% 76.86 0.0
03 09:55 W 6 16.09 Fair CLR 19 9.9 56% 76.86 0.0
03 09:35 W 9 16.09 Fair CLR 18.5 9.5 56% 76.86 0.0
03 09:15 W 11 16.09 Fair CLR 17.6 9 57% 76.84 0.0
03 08:55 W 9 16.09 Fair CLR 16.7 8.7 59% 76.84 0.0
03 08:35 W 11 16.09 Fair CLR 15.6 8.4 62% 76.81 0.0
03 08:15 W 9 16.09 Fair CLR 14.4 8.5 68% 76.81 0.0
03 07:35 W 11 16.09 Fair CLR 14.5 7.6 64% 76.78 0.0
03 07:15 W 11 16.09 Fair CLR 13.1 8.9 76% 76.78 0.0
03 06:55 W 9 16.09 Fair CLR 12.7 8.3 17 12.7 75% 76.76 0.0
03 06:35 W 11 16.09 Fair CLR 14.5 7.7 64% 76.76 0.0
03 06:15 W 9 16.09 Fair CLR 14.3 7.6 64% 76.73 0.0
03 05:55 W 9 16.09 Fair CLR 14 7.7 66% 76.73 0.0
03 05:35 W 9 16.09 Fair CLR 14 7.8 66% 76.73 0.0
03 05:15 W 6 16.09 Fair CLR 13.7 8 69% 76.71 0.0
03 04:55 Calm 16.09 Fair CLR 13.6 8.1 70% 76.68 0.0
03 04:35 Calm 16.09 Fair CLR 14.3 7.7 65% 76.71 0.0
03 04:15 W 6 16.09 Fair CLR 14.1 7.9 67% 76.68 0.0
03 03:55 Calm 16.09 Fair CLR 14.3 7.9 66% 76.68 0.0
03 03:35 Calm 16.09 Fair CLR 14.5 8 65% 76.71 0.0
Date Time (cdt) Wind (kph) Vis. (km) Weather Sky Cond. Air Dwpt Max. Min. Relative Humidity Wind Chill (°C) Heat Index (°C) altimeter (cm) sea level (mb) 1 hr 3 hr 6 hr
6 hour
Temperature (ºC) Pressure Precipitation (cm)